Flight Track Log - Related Links

Times and Time Zones

All times are in EDT time to prevent confusion due to time zone crossing. See the QFA581 flight status page for this flight to view local times or setup timezone preferences in your user account.

Time Position Orientation Groundspeed Altitude Reporting Facility
EDT Latitude Longitude Course Direction KTS MPH feet Rate Location/Type
Thu 08:28:10 PM -33.9640 151.1790 180° South  Level FlightAware ADS-B
Thu 08:30:00 PM -33.9031 150.9652 289° West  Level FlightAware Approximate
Thu 08:31:00 PM -33.8698 150.8487 289° West  Level FlightAware Approximate
Thu 08:32:10 PM -33.9560 151.1790 353° North 98 113 200  Level FlightAware ADS-B
Thu 08:32:31 PM -33.9430 151.1750 346° North 162 186 300 1,029 Climbing FlightAware ADS-B
Thu 08:32:45 PM -33.9320 151.1730 351° North 151 174 800 2,000 Climbing FlightAware ADS-B
Thu 08:33:10 PM -33.9150 151.1650 339° North 154 177 1,600 1,543 Climbing FlightAware ADS-B
Thu 08:33:20 PM -33.9100 151.1570 307° West 170 196 1,700 800 Climbing FlightAware ADS-B
Thu 08:33:40 PM -33.9010 151.1400 303° West 195 224 2,000 1,200 Climbing FlightAware ADS-B
Thu 08:33:55 PM -33.8930 151.1250 303° West 214 246 2,400 2,571 Climbing FlightAware ADS-B
Thu 08:34:15 PM -33.8820 151.1060 305° West 217 250 3,500 3,300 Climbing FlightAware ADS-B
Thu 08:34:35 PM -33.8720 151.0850 300° West 217 250 4,600 3,000 Climbing FlightAware ADS-B
Thu 08:35:01 PM -33.8570 151.0580 304° West 224 258 5,800 2,800 Climbing FlightAware ADS-B
Thu 08:35:20 PM -33.8460 151.0370 302° West 236 272 6,700 3,290 Climbing FlightAware ADS-B
Thu 08:35:32 PM -33.8400 151.0250 301° West 223 257 7,500 4,200 Climbing FlightAware ADS-B
Thu 08:35:50 PM -33.8300 151.0040 300° West 213 245 8,800 3,818 Climbing FlightAware ADS-B
Thu 08:36:05 PM -33.8270 150.9880 283° West 211 243 9,600 2,933 Climbing FlightAware ADS-B
Thu 08:36:35 PM -33.8220 150.9510 279° West 224 258 11,000 2,400 Climbing FlightAware ADS-B
Thu 08:37:10 PM -33.8150 150.9100 282° West 242 278 12,200 3,000 Climbing FlightAware ADS-B
Thu 08:37:45 PM -33.8070 150.8600 281° West 224 258 14,500 2,597 Climbing FlightAware ADS-B
Thu 08:38:17 PM -33.7989 150.8175 281° West 231 266 15,100 1,317 Climbing Aus ATC (RADAR)
Thu 08:38:26 PM -33.7970 150.8050 281° West 265 305 15,400 1,421 Climbing FlightAware ADS-B
Thu 08:38:55 PM -33.7900 150.7600 281° West 294 338 16,000 1,477 Climbing FlightAware ADS-B
Thu 08:39:31 PM -33.7800 150.7040 282° West 317 365 17,000 2,301 Climbing FlightAware ADS-B
Thu 08:40:08 PM -33.7680 150.6360 282° West 323 372 18,800 2,647 Climbing FlightAware ADS-B
Thu 08:40:39 PM -33.7600 150.5850 281° West 327 376 20,000 2,282 Climbing FlightAware ADS-B
Thu 08:41:19 PM -33.7470 150.5120 282° West 332 382 21,500 2,368 Climbing FlightAware ADS-B
Thu 08:41:55 PM -33.7360 150.4450 281° West 333 383 23,000 2,273 Climbing FlightAware ADS-B
Thu 08:42:25 PM -33.7260 150.3860 282° West 340 391 24,000 2,545 Climbing FlightAware ADS-B
Thu 08:43:01 PM -33.7160 150.3220 281° West 328 377 25,800 2,418 Climbing FlightAware ADS-B
Thu 08:43:32 PM -33.7133 150.2660 281° West 308 354 26,700 1,733 Climbing Aus ATC (RADAR)
Thu 08:43:46 PM -33.7160 150.2410 281° West 324 373 27,100 1,102 Climbing FlightAware ADS-B
Thu 08:44:21 PM -33.7220 150.1760 264° West 341 392 27,600 857 Climbing FlightAware ADS-B
Thu 08:44:56 PM -33.7280 150.1080 264° West 356 410 28,100 1,114 Climbing FlightAware ADS-B
Thu 08:45:31 PM -33.7340 150.0390 264° West 362 417 28,900 1,029 Climbing FlightAware ADS-B
Thu 08:46:06 PM -33.7400 149.9660 264° West 376 433 29,300 857 Climbing FlightAware ADS-B
Thu 08:46:41 PM -33.7470 149.8930 263° West 384 442 29,900 1,371 Climbing FlightAware ADS-B
Thu 08:47:16 PM -33.7530 149.8190 264° West 379 436 30,900 1,286 Climbing FlightAware ADS-B
Thu 08:47:51 PM -33.7590 149.7460 264° West 387 445 31,400 857 Climbing FlightAware ADS-B
Thu 08:48:26 PM -33.7660 149.6690 264° West 394 453 31,900 1,029 Climbing FlightAware ADS-B
Thu 08:49:01 PM -33.7720 149.5920 265° West 396 456 32,600 1,029 Climbing FlightAware ADS-B
Thu 08:49:36 PM -33.7790 149.5150 264° West 401 461 33,100 943 Climbing FlightAware ADS-B
Thu 08:50:11 PM -33.7850 149.4370 265° West 402 463 33,700 1,029 Climbing FlightAware ADS-B
Thu 08:50:46 PM -33.7910 149.3600 265° West 400 460 34,300 943 Climbing FlightAware ADS-B
Thu 08:51:21 PM -33.7980 149.2820 264° West 404 465 34,800 1,029 Climbing FlightAware ADS-B
Thu 08:51:56 PM -33.8040 149.2040 265° West 399 459 35,500 943 Climbing FlightAware ADS-B
Thu 08:52:31 PM -33.8100 149.1260 265° West 397 457 35,900 480 Climbing FlightAware ADS-B
Thu 08:53:11 PM -33.8170 149.0380 265° West 404 465 36,100 171 Climbing FlightAware ADS-B
Thu 08:53:41 PM -33.8230 148.9715 265° West 397 457 36,100 514 Level Aus ATC (RADAR)
Thu 08:53:46 PM -33.8240 148.9600 265° West 406 467 36,400 800 Climbing FlightAware ADS-B
Thu 08:54:26 PM -33.8310 148.8690 265° West 407 468 36,700 429 Climbing FlightAware ADS-B
Thu 08:54:56 PM -33.8360 148.8010 265° West 408 470 36,900 554 Climbing FlightAware ADS-B
Thu 08:55:31 PM -33.8420 148.7230 265° West 408 470 37,300 600 Climbing FlightAware ADS-B
Thu 08:56:06 PM -33.8490 148.6430 264° West 407 468 37,600 560 Climbing FlightAware ADS-B
Thu 08:56:46 PM -33.8630 148.5550 259° West 406 467 38,000 338 Climbing FlightAware ADS-B
Thu 08:57:17 PM -33.8740 148.4880 259° West 410 472 38,000  Level FlightAware ADS-B
Thu 08:57:51 PM -33.8870 148.4100 259° West 418 481 38,000  Level FlightAware ADS-B
Thu 08:58:31 PM -33.9020 148.3170 259° West 422 486 38,000  Level FlightAware ADS-B
Thu 08:59:01 PM -33.9140 148.2470 258° West 426 490 38,000  Level FlightAware ADS-B
Thu 08:59:36 PM -33.9270 148.1660 259° West 423 487 38,000  Level FlightAware ADS-B
Thu 09:00:16 PM -33.9420 148.0740 259° West 421 484 38,000  Level FlightAware ADS-B
Thu 09:00:46 PM -33.9530 148.0060 259° West 420 483 38,000  Level FlightAware ADS-B
Thu 09:01:21 PM -33.9660 147.9250 259° West 420 483 38,000  Level FlightAware ADS-B
Thu 09:01:56 PM -33.9790 147.8450 259° West 420 483 38,000  Level FlightAware ADS-B
Thu 09:02:31 PM -33.9920 147.7640 259° West 420 483 38,000  Level FlightAware ADS-B
Thu 09:03:06 PM -34.0040 147.6830 260° West 418 481 38,000  Level FlightAware ADS-B
Thu 09:03:46 PM -34.0190 147.5920 259° West 417 480 38,000 -81 Level FlightAware ADS-B
Thu 09:04:20 PM -34.0316 147.5148 259° West 412 474 37,900  Descending Aus ATC (RADAR)
Thu 09:04:21 PM -34.0310 147.5110 259° West 417 480 38,000  Climbing FlightAware ADS-B
Thu 09:04:51 PM -34.0424 147.4459 259° West 414 476 37,900  Descending Aus ATC (RADAR)
Thu 09:04:51 PM -34.0420 147.4430 259° West 416 479 38,000 171 Climbing FlightAware ADS-B
Thu 09:05:26 PM -34.0550 147.3630 259° West 414 476 38,000  Level FlightAware ADS-B
Thu 09:06:06 PM -34.0690 147.2710 260° West 420 483 38,000  Level FlightAware ADS-B
Thu 09:06:36 PM -34.0800 147.2010 259° West 422 486 38,000 -95 Level FlightAware ADS-B
Thu 09:07:09 PM -34.0924 147.1244 259° West 416 479 37,900  Descending Aus ATC (RADAR)
Thu 09:07:21 PM -34.0960 147.0980 259° West 421 484 38,000 128 Climbing FlightAware ADS-B
Thu 09:07:56 PM -34.1080 147.0160 260° West 420 483 38,000  Level FlightAware ADS-B
Thu 09:08:31 PM -34.1200 146.9360 260° West 417 480 38,000  Level FlightAware ADS-B
Thu 09:09:11 PM -34.1340 146.8440 260° West 415 478 38,000  Level FlightAware ADS-B
Thu 09:09:41 PM -34.1450 146.7760 259° West 415 478 38,000  Level FlightAware ADS-B
Thu 09:10:16 PM -34.1570 146.6940 260° West 414 476 38,000  Level FlightAware ADS-B
Thu 09:10:51 PM -34.1690 146.6160 259° West 414 476 38,000  Level FlightAware ADS-B
Thu 09:11:34 PM -34.1830 146.5180 260° West 415 478 38,000  Level FlightAware ADS-B
Thu 09:12:11 PM -34.1960 146.4340 259° West 412 474 38,000  Level FlightAware ADS-B
Thu 09:12:47 PM -34.2070 146.3540 261° West 407 468 38,000  Level FlightAware ADS-B
Thu 09:13:17 PM -34.2170 146.2860 260° West 402 463 38,000  Level FlightAware ADS-B
Thu 09:13:52 PM -34.2280 146.2100 260° West 400 460 38,000  Level FlightAware ADS-B
Thu 09:14:31 PM -34.2410 146.1230 260° West 400 460 38,000  Level FlightAware ADS-B
Thu 09:15:02 PM -34.2510 146.0560 260° West 400 460 38,000  Level FlightAware ADS-B
Thu 09:15:37 PM -34.2610 145.9780 261° West 400 460 38,000  Level FlightAware ADS-B
Thu 09:16:14 PM -34.2700 145.9000 262° West 402 463 38,000  Level FlightAware ADS-B
Thu 09:16:47 PM -34.2800 145.8210 261° West 405 466 38,000  Level FlightAware ADS-B
Thu 09:17:27 PM -34.2910 145.7320 261° West 407 468 38,000  Level FlightAware ADS-B
Thu 09:17:57 PM -34.2990 145.6630 261° West 409 471 38,000 -188 Level FlightAware ADS-B
Thu 09:17:59 PM -34.3001 145.6600 261° West 406 467 37,900  Descending Aus ATC (RADAR)
Thu 09:18:31 PM -34.3080 145.5850 262° West 407 468 38,000 88 Climbing FlightAware ADS-B
Thu 09:19:07 PM -34.3180 145.5050 261° West 406 467 38,000  Level FlightAware ADS-B
Thu 09:19:41 PM -34.3270 145.4280 262° West 404 465 38,000  Level FlightAware ADS-B
Thu 09:20:17 PM -34.3370 145.3480 261° West 402 463 38,000  Level FlightAware ADS-B
Thu 09:20:51 PM -34.3460 145.2720 262° West 400 460 38,000  Level FlightAware ADS-B
Thu 09:21:27 PM -34.3550 145.1930 262° West 401 461 38,000  Level FlightAware ADS-B
Thu 09:22:06 PM -34.3650 145.1050 262° West 403 464 38,000  Level FlightAware ADS-B
Thu 09:22:42 PM -34.3750 145.0250 261° West 404 465 38,000  Level FlightAware ADS-B
Thu 09:23:11 PM -34.3820 144.9590 263° West 405 466 38,000  Level FlightAware ADS-B
Thu 09:23:47 PM -34.3920 144.8780 261° West 406 467 38,000 -83 Level FlightAware ADS-B
Thu 09:24:23 PM -34.4015 144.7973 261° West 403 464 37,900  Descending Aus ATC (RADAR)
Thu 09:24:26 PM -34.4020 144.7900 261° West 407 468 38,000 176 Climbing FlightAware ADS-B
Thu 09:24:57 PM -34.4100 144.7200 262° West 409 471 38,000  Level FlightAware ADS-B
Thu 09:25:31 PM -34.4180 144.6410 263° West 410 472 38,000  Level FlightAware ADS-B
Thu 09:26:07 PM -34.4280 144.5600 261° West 415 478 38,000  Level FlightAware ADS-B
Thu 09:26:46 PM -34.4380 144.4690 262° West 414 476 38,000  Level FlightAware ADS-B
Thu 09:27:17 PM -34.4460 144.3990 262° West 415 478 38,000  Level FlightAware ADS-B
Thu 09:27:56 PM -34.4560 144.3080 262° West 414 476 38,000  Level FlightAware ADS-B
Thu 09:28:32 PM -34.4650 144.2260 262° West 413 475 38,000  Level FlightAware ADS-B
Thu 09:29:01 PM -34.4720 144.1580 263° West 413 475 38,000  Level FlightAware ADS-B
Thu 09:29:37 PM -34.4810 144.0770 262° West 412 474 38,000  Level FlightAware ADS-B
Thu 09:30:11 PM -34.4890 143.9970 263° West 411 473 38,000  Level FlightAware ADS-B
Thu 09:30:47 PM -34.4980 143.9170 262° West 407 468 38,000 91 Level FlightAware ADS-B
Thu 09:31:17 PM -34.5058 143.8486 262° West 403 464 38,100  Climbing Aus ATC (RADAR)
Thu 09:31:26 PM -34.5070 143.8290 262° West 405 466 38,000 -150 Descending FlightAware ADS-B
Thu 09:31:57 PM -34.5140 143.7600 263° West 402 463 38,000  Level FlightAware ADS-B
Thu 09:32:36 PM -34.5240 143.6700 262° West 398 458 38,000 86 Level FlightAware ADS-B
Thu 09:33:07 PM -34.5312 143.6043 262° West 394 453 38,100  Climbing Aus ATC (RADAR)
Thu 09:33:12 PM -34.5320 143.5950 262° West 396 456 38,000 -171 Descending FlightAware ADS-B
Thu 09:33:42 PM -34.5390 143.5270 263° West 397 457 38,000 100 Level FlightAware ADS-B
Thu 09:34:12 PM -34.5461 143.4614 263° West 393 452 38,100  Climbing Aus ATC (RADAR)
Thu 09:34:18 PM -34.5470 143.4510 263° West 398 458 38,000 -133 Descending FlightAware ADS-B
Thu 09:34:57 PM -34.5560 143.3620 263° West 397 457 38,000  Level FlightAware ADS-B
Thu 09:35:37 PM -34.5650 143.2740 263° West 399 459 38,000  Level FlightAware ADS-B
Thu 09:36:12 PM -34.5720 143.1960 264° West 399 459 38,000 87 Level FlightAware ADS-B
Thu 09:36:46 PM -34.5809 143.1178 264° West 398 458 38,100  Climbing Aus ATC (RADAR)
Thu 09:36:47 PM -34.5800 143.1180 264° West 400 460 38,000  Descending FlightAware ADS-B
Thu 09:37:21 PM -34.5886 143.0401 264° West 396 456 38,100  Climbing Aus ATC (RADAR)
Thu 09:37:22 PM -34.5880 143.0390 264° West 398 458 38,000 -167 Descending FlightAware ADS-B
Thu 09:37:57 PM -34.5950 142.9680 263° West 396 456 38,000  Level FlightAware ADS-B
Thu 09:38:32 PM -34.6030 142.8840 263° West 394 453 38,000  Level FlightAware ADS-B
Thu 09:39:07 PM -34.6110 142.8090 263° West 393 452 38,000  Level FlightAware ADS-B
Thu 09:39:42 PM -34.6180 142.7310 264° West 391 450 38,000  Level FlightAware ADS-B
Thu 09:40:18 PM -34.6250 142.6560 264° West 388 447 38,000  Level FlightAware ADS-B
Thu 09:40:52 PM -34.6330 142.5800 263° West 386 444 38,000  Level FlightAware ADS-B
Thu 09:41:29 PM -34.6400 142.5040 264° West 385 443 38,000  Level FlightAware ADS-B
Thu 09:42:02 PM -34.6470 142.4290 264° West 384 442 38,000  Level FlightAware ADS-B
Thu 09:42:36 PM -34.6540 142.3540 264° West 384 442 38,000  Level FlightAware ADS-B
Thu 09:43:12 PM -34.6610 142.2780 264° West 383 441 38,000  Level FlightAware ADS-B
Thu 09:43:51 PM -34.6690 142.1930 263° West 382 440 38,000  Level FlightAware ADS-B
Thu 09:44:22 PM -34.6740 142.1290 265° West 383 441 38,000  Level FlightAware ADS-B
Thu 09:44:56 PM -34.6810 142.0540 264° West 383 441 38,000  Level FlightAware ADS-B
Thu 09:45:32 PM -34.6880 141.9790 264° West 382 440 38,000  Level FlightAware ADS-B
Thu 09:46:12 PM -34.6960 141.8900 264° West 381 438 38,000  Level FlightAware ADS-B
Thu 09:46:43 PM -34.7010 141.8270 264° West 381 438 38,000  Level FlightAware ADS-B
Thu 09:47:18 PM -34.7080 141.7520 264° West 381 438 38,000  Level FlightAware ADS-B
Thu 09:47:53 PM -34.7150 141.6760 264° West 381 438 38,000  Level FlightAware ADS-B
Thu 09:48:29 PM -34.7210 141.6010 264° West 379 436 38,000  Level FlightAware ADS-B
Thu 09:49:04 PM -34.7280 141.5260 264° West 380 437 38,000  Level FlightAware ADS-B
Thu 09:49:39 PM -34.7340 141.4530 264° West 380 437 38,000  Level FlightAware ADS-B
Thu 09:50:15 PM -34.7400 141.3760 265° West 380 437 38,000  Level FlightAware ADS-B
Thu 09:50:55 PM -34.7470 141.2920 264° West 381 438 38,000  Level FlightAware ADS-B
Thu 09:51:30 PM -34.7530 141.2220 264° West 382 440 38,000  Level FlightAware ADS-B
Thu 09:52:08 PM -34.7600 141.1350 264° West 383 441 38,000  Level FlightAware ADS-B
Thu 09:52:39 PM -34.7650 141.0780 264° West 383 441 38,000  Level FlightAware ADS-B
Thu 09:53:15 PM -34.7720 140.9930 264° West 383 441 38,000  Level FlightAware ADS-B
Thu 09:54:00 PM -34.7800 140.8950 264° West 385 443 38,000  Level FlightAware ADS-B
Thu 09:54:31 PM -34.7840 140.8400 265° West 385 443 38,000  Level FlightAware ADS-B
Thu 09:55:08 PM -34.7910 140.7510 265° West 386 444 38,000  Level FlightAware ADS-B
Thu 09:55:43 PM -34.7970 140.6760 264° West 386 444 38,000  Level FlightAware ADS-B
Thu 09:56:17 PM -34.8030 140.5990 265° West 387 445 38,000  Level FlightAware ADS-B
Thu 09:56:51 PM -34.8090 140.5260 264° West 386 444 38,000 90 Level FlightAware ADS-B
Thu 09:57:24 PM -34.8150 140.4530 264° West 384 442 38,100  Climbing Aus ATC (RADAR)
Thu 09:57:28 PM -34.8150 140.4470 264° West 385 443 38,000 -146 Descending FlightAware ADS-B
Thu 09:58:05 PM -34.8210 140.3700 265° West 384 442 38,000  Level FlightAware ADS-B
Thu 09:58:35 PM -34.8260 140.3050 265° West 383 441 38,000 94 Level FlightAware ADS-B
Thu 09:59:09 PM -34.8319 140.2282 265° West 381 438 38,100  Climbing Aus ATC (RADAR)
Thu 09:59:11 PM -34.8320 140.2280 265° West 383 441 38,000 -158 Descending FlightAware ADS-B
Thu 09:59:47 PM -34.8370 140.1540 265° West 384 442 38,000 158 Level FlightAware ADS-B
Thu 09:59:49 PM -34.8381 140.1425 265° West 382 440 38,100  Climbing Aus ATC (RADAR)
Thu 10:00:30 PM -34.8450 140.0540 264° West 385 443 38,000 -79 Descending FlightAware ADS-B
Thu 10:01:05 PM -34.8500 139.9770 265° West 385 443 38,000  Level FlightAware ADS-B
Thu 10:01:40 PM -34.8550 139.9020 265° West 384 442 38,000  Level FlightAware ADS-B
Thu 10:02:17 PM -34.8610 139.8270 264° West 384 442 38,000  Level FlightAware ADS-B
Thu 10:02:50 PM -34.8660 139.7540 265° West 385 443 38,000  Level FlightAware ADS-B
Thu 10:03:25 PM -34.8720 139.6770 265° West 386 444 38,000  Level FlightAware ADS-B
Thu 10:04:00 PM -34.8770 139.6000 265° West 387 445 38,000  Level FlightAware ADS-B
Thu 10:04:35 PM -34.8820 139.5230 265° West 389 448 38,000  Level FlightAware ADS-B
Thu 10:05:10 PM -34.8870 139.4500 265° West 388 447 38,000  Level FlightAware ADS-B
Thu 10:05:45 PM -34.8930 139.3710 265° West 388 447 38,000  Level FlightAware ADS-B
Thu 10:06:21 PM -34.8980 139.2950 265° West 388 447 38,000  Level FlightAware ADS-B
Thu 10:07:00 PM -34.9040 139.2070 265° West 391 450 38,000  Level FlightAware ADS-B
Thu 10:07:31 PM -34.9080 139.1400 266° West 392 451 38,000  Level FlightAware ADS-B
Thu 10:08:05 PM -34.9130 139.0650 265° West 390 449 38,000  Level FlightAware ADS-B
Thu 10:08:41 PM -34.9180 138.9860 266° West 390 449 38,000  Level FlightAware ADS-B
Thu 10:09:15 PM -34.9230 138.9130 265° West 390 449 38,000  Level FlightAware ADS-B
Thu 10:09:51 PM -34.9280 138.8330 266° West 390 449 38,000  Level FlightAware ADS-B
Thu 10:10:25 PM -34.9330 138.7590 265° West 389 448 38,000  Level FlightAware ADS-B
Thu 10:11:01 PM -34.9380 138.6800 266° West 390 449 38,000  Level FlightAware ADS-B
Thu 10:11:35 PM -34.9420 138.6030 266° West 392 451 38,000  Level FlightAware ADS-B
Thu 10:12:11 PM -34.9470 138.5260 265° West 393 452 38,000  Level FlightAware ADS-B
Thu 10:12:45 PM -34.9520 138.4510 265° West 393 452 38,000 86 Level FlightAware ADS-B
Thu 10:13:21 PM -34.9590 138.3740 264° West 392 451 38,100 257 Climbing FlightAware ADS-B
Thu 10:13:55 PM -34.9660 138.2960 264° West 391 450 38,300 -87 Climbing FlightAware ADS-B
Thu 10:14:30 PM -34.9720 138.2170 265° West 391 450 38,000 -176 Descending FlightAware ADS-B
Thu 10:15:03 PM -34.9775 138.1476 265° West 393 452 38,100  Climbing Aus ATC (RADAR)
Thu 10:15:05 PM -34.9780 138.1420 265° West 391 450 38,000  Descending FlightAware ADS-B
Thu 10:15:37 PM -34.9835 138.0712 265° West 390 449 38,100  Climbing Aus ATC (RADAR)
Thu 10:15:40 PM -34.9840 138.0670 265° West 390 449 38,000 -158 Descending FlightAware ADS-B
Thu 10:16:15 PM -34.9900 137.9890 265° West 389 448 38,000  Level FlightAware ADS-B
Thu 10:16:50 PM -34.9960 137.9140 264° West 388 447 38,000  Level FlightAware ADS-B
Thu 10:17:25 PM -35.0020 137.8360 264° West 389 448 38,000 162 Level FlightAware ADS-B
Thu 10:17:27 PM -35.0023 137.8312 264° West 389 448 38,100  Climbing Aus ATC (RADAR)
Thu 10:18:00 PM -35.0080 137.7590 265° West 391 450 38,000 -88 Descending FlightAware ADS-B
Thu 10:18:35 PM -35.0140 137.6830 264° West 390 449 38,000  Level FlightAware ADS-B
Thu 10:19:10 PM -35.0200 137.6040 265° West 389 448 38,000  Level FlightAware ADS-B
Thu 10:19:46 PM -35.0250 137.5270 265° West 388 447 38,000  Level FlightAware ADS-B
Thu 10:20:21 PM -35.0310 137.4500 265° West 389 448 38,000  Level FlightAware ADS-B
Thu 10:20:56 PM -35.0370 137.3740 264° West 391 450 38,000  Level FlightAware ADS-B
Thu 10:21:31 PM -35.0420 137.2960 266° West 392 451 38,000 429 Level FlightAware ADS-B
Thu 10:22:06 PM -35.0480 137.2210 264° West 388 447 38,500 771 Climbing FlightAware ADS-B
Thu 10:22:41 PM -35.0530 137.1440 265° West 388 447 38,900 429 Climbing FlightAware ADS-B
Thu 10:23:16 PM -35.0590 137.0680 264° West 392 451 39,000 429 Climbing FlightAware ADS-B
Thu 10:23:51 PM -35.0640 136.9890 264° West 391 450 39,400 833 Climbing FlightAware ADS-B
Thu 10:23:52 PM -35.0638 136.9895 264° West 392 451 39,500 343 Climbing Aus ATC (RADAR)
Thu 10:24:26 PM -35.0690 136.9140 265° West 393 452 39,600 261 Climbing FlightAware ADS-B
Thu 10:25:01 PM -35.0750 136.8380 264° West 395 455 39,800 400 Climbing FlightAware ADS-B
Thu 10:25:41 PM -35.0802 136.7463 264° West 396 456 40,100 300 Climbing Aus ATC (RADAR)
Thu 10:25:41 PM -35.0810 136.7480 264° West 396 456 40,000 -171 Descending FlightAware ADS-B
Thu 10:26:16 PM -35.0860 136.6680 266° West 396 456 40,000  Level FlightAware ADS-B
Thu 10:26:56 PM -35.0920 136.5800 265° West 393 452 40,000  Level FlightAware ADS-B
Thu 10:27:26 PM -35.0960 136.5150 266° West 390 449 40,000  Level FlightAware ADS-B
Thu 10:28:02 PM -35.1020 136.4350 265° West 391 450 40,000  Level FlightAware ADS-B
Thu 10:28:36 PM -35.1060 136.3640 266° West 389 448 40,000  Level FlightAware ADS-B
Thu 10:29:16 PM -35.1120 136.2750 265° West 388 447 40,000  Level FlightAware ADS-B
Thu 10:29:46 PM -35.1160 136.2090 266° West 387 445 40,000  Level FlightAware ADS-B
Thu 10:30:22 PM -35.1210 136.1310 265° West 387 445 40,000  Level FlightAware ADS-B
Thu 10:30:56 PM -35.1260 136.0550 265° West 387 445 40,000  Level FlightAware ADS-B
Thu 10:31:32 PM -35.1310 135.9760 266° West 388 447 40,000  Level FlightAware ADS-B
Thu 10:32:11 PM -35.1360 135.8900 266° West 389 448 40,000  Level FlightAware ADS-B
Thu 10:32:42 PM -35.1400 135.8230 266° West 389 448 40,000  Level FlightAware ADS-B
Thu 10:33:16 PM -35.1440 135.7510 266° West 389 448 40,000  Level FlightAware ADS-B
Thu 10:33:52 PM -35.1490 135.6710 266° West 389 448 40,000  Level FlightAware ADS-B
Thu 10:34:31 PM -35.1540 135.5850 266° West 389 448 40,000  Level FlightAware ADS-B
Thu 10:35:01 PM -35.1580 135.5190 266° West 390 449 40,000  Level FlightAware ADS-B
Thu 10:35:36 PM -35.1620 135.4400 266° West 391 450 40,000  Level FlightAware ADS-B
Thu 10:36:16 PM -35.1670 135.3530 266° West 391 450 40,000  Level FlightAware ADS-B
Thu 10:36:46 PM -35.1710 135.2860 266° West 391 450 40,000  Level FlightAware ADS-B
Thu 10:37:21 PM -35.1750 135.2160 266° West 390 449 40,000  Level FlightAware ADS-B
Thu 10:38:06 PM -35.1800 135.1160 266° West 389 448 40,000  Level FlightAware ADS-B
Thu 10:38:47 PM -35.1850 135.0230 266° West 388 447 40,000  Level FlightAware ADS-B
Thu 10:39:21 PM -35.1880 134.9620 267° West 388 447 40,000  Level FlightAware ADS-B
Thu 10:39:57 PM -35.1910 134.8950 267° West 388 447 40,000  Level FlightAware ADS-B
Thu 10:40:33 PM -35.1960 134.8050 266° West 387 445 40,000  Level FlightAware ADS-B
Thu 10:41:21 PM -35.2020 134.6970 266° West 387 445 40,000  Level FlightAware ADS-B
Thu 10:41:58 PM -35.2050 134.6280 267° West 387 445 40,000  Level FlightAware ADS-B
Thu 10:42:34 PM -35.2080 134.5610 267° West 387 445 40,000  Level FlightAware ADS-B
Thu 10:43:11 PM -35.2110 134.4920 267° West 387 445 40,000  Level FlightAware ADS-B
Thu 10:43:48 PM -35.2140 134.4240 267° West 387 445 40,000  Level FlightAware ADS-B
Thu 10:44:22 PM -35.2160 134.3600 268° West 387 445 40,000  Level FlightAware ADS-B
Thu 10:44:58 PM -35.2190 134.2930 267° West 387 445 40,000  Level FlightAware ADS-B
Thu 10:45:35 PM -35.2220 134.2250 267° West 387 445 40,000  Level FlightAware ADS-B
Thu 10:46:11 PM -35.2250 134.1580 267° West 387 445 40,000  Level FlightAware ADS-B
Thu 10:46:47 PM -35.2280 134.0910 267° West 387 445 40,000  Level FlightAware ADS-B
Thu 10:47:23 PM -35.2310 134.0240 267° West 387 445 40,000  Level FlightAware ADS-B
Thu 10:47:24 PM -35.2377 133.8845 267° West 389 448 40,000  Level Aus ATC (RADAR)
Thu 10:47:59 PM -35.2340 133.9570 267° West 387 445 40,000  Level FlightAware ADS-B
Thu 10:48:36 PM -35.2360 133.8880 268° West 387 445 40,000  Level FlightAware ADS-B
Thu 10:49:12 PM -35.2390 133.8210 267° West 387 445 40,000  Level FlightAware ADS-B
Thu 10:49:44 PM -35.2478 133.5818 267° West 382 440 40,000  Level Aus ATC (RADAR)
Thu 10:49:49 PM -35.2420 133.7520 267° West 387 445 40,000  Level FlightAware ADS-B
Thu 10:50:25 PM -35.2450 133.6850 267° West 387 445 40,000 -2 Level FlightAware ADS-B
Thu 10:53:00 PM -35.2202 133.3748 275° West  Level FlightAware Approximate
Thu 10:54:00 PM -35.2104 133.2547 276° West  Level FlightAware Approximate
Thu 10:55:00 PM -35.2005 133.1347 276° West  Level FlightAware Approximate
Thu 10:56:00 PM -35.1905 133.0147 276° West  Level FlightAware Approximate
Thu 10:56:00 PM -35.1698 132.7049 277° West 40,000  Level Aus ATC (Calculated)
Thu 10:57:00 PM -35.1587 132.5851 276° West  Level FlightAware Approximate
Thu 10:58:00 PM -35.1476 132.4654 276° West  Level FlightAware Approximate
Thu 10:59:00 PM -35.1363 132.3456 277° West  Level FlightAware Approximate
Thu 11:00:00 PM -35.1250 132.2259 277° West  Level FlightAware Approximate
Thu 11:00:05 PM -35.1203 132.1774 278° West 40,000  Level Aus ATC (Calculated)
Thu 11:00:05 PM -35.1203 132.1774 278° West 40,000 -2 Level Aus ATC (Calculated)
Thu 11:02:00 PM -35.0976 131.9434 277° West  Level FlightAware Approximate
Thu 11:03:00 PM -35.0856 131.8214 277° West  Level FlightAware Approximate
Thu 11:04:00 PM -35.0734 131.6994 277° West  Level FlightAware Approximate
Thu 11:05:00 PM -35.0612 131.5774 277° West  Level FlightAware Approximate
Thu 11:05:59 PM -35.0490 131.4502 278° West 40,000  Level Aus ATC (Calculated)
Thu 11:06:00 PM -35.0488 131.4555 277° West  Level FlightAware Approximate
Thu 11:07:00 PM -35.0598 131.5749 96° East  Level FlightAware Approximate
Thu 11:08:00 PM -35.0492 131.4523 276° West  Level FlightAware Approximate
Thu 11:09:00 PM -35.0458 131.4253 277° West  Level FlightAware Approximate
Thu 11:10:00 PM -35.0334 131.3030 277° West  Level FlightAware Approximate
Thu 11:10:04 PM -34.9931 130.9090 279° West 40,000  Level Aus ATC (Calculated)
Thu 11:10:54 PM -34.9834 130.8177 279° West 40,000 -2 Level Aus ATC (Calculated)
Thu 11:11:00 PM -35.0209 131.1807 277° West  Level FlightAware Approximate
Thu 11:12:00 PM -34.9691 130.6834 277° West  Level FlightAware Approximate
Thu 11:13:00 PM -34.9559 130.5614 277° West  Level FlightAware Approximate
Thu 11:14:00 PM -34.9426 130.4393 278° West  Level FlightAware Approximate
Thu 11:15:00 PM -34.9291 130.3173 278° West  Level FlightAware Approximate
Thu 11:15:15 PM -34.9259 130.2877 279° West 40,000  Level Aus ATC (Calculated)
Thu 11:15:53 PM -34.9179 130.2160 279° West 40,000 -2 Level Aus ATC (Calculated)
Thu 11:17:00 PM -34.9026 130.0799 278° West  Level FlightAware Approximate
Thu 11:18:00 PM -34.8889 129.9580 278° West  Level FlightAware Approximate
Thu 11:19:00 PM -34.8750 129.8362 278° West  Level FlightAware Approximate
Thu 11:20:00 PM -34.8609 129.7144 278° West  Level FlightAware Approximate
Thu 11:20:52 PM -34.8466 129.5913 280° West 40,000  Level Aus ATC (Calculated)
Thu 11:21:00 PM -34.8468 129.5926 278° West  Level FlightAware Approximate
Thu 11:22:00 PM -34.8304 129.4529 278° West  Level FlightAware Approximate
Thu 11:23:00 PM -34.8159 129.3309 278° West  Level FlightAware Approximate
Thu 11:24:00 PM -34.8013 129.2088 278° West  Level FlightAware Approximate
Thu 11:25:00 PM -34.7866 129.0868 278° West  Level FlightAware Approximate
Thu 11:25:52 PM -34.7753 128.9937 280° West 40,000  Level Aus ATC (Calculated)
Thu 11:26:00 PM -34.7718 128.9649 278° West  Level FlightAware Approximate
Thu 11:27:00 PM -34.7584 128.8555 278° West  Level FlightAware Approximate
Thu 11:28:00 PM -34.7433 128.7337 279° West  Level FlightAware Approximate
Thu 11:29:00 PM -34.7282 128.6119 279° West  Level FlightAware Approximate
Thu 11:30:00 PM -34.7129 128.4901 279° West  Level FlightAware Approximate
Thu 11:30:52 PM -34.6979 128.3723 280° West 40,000  Level Aus ATC (Calculated)
Thu 11:31:00 PM -34.6974 128.3684 279° West  Level FlightAware Approximate
Thu 11:32:00 PM -34.6803 128.2344 279° West  Level FlightAware Approximate
Thu 11:33:00 PM -34.6646 128.1127 279° West  Level FlightAware Approximate
Thu 11:34:00 PM -34.6488 127.9912 279° West  Level FlightAware Approximate
Thu 11:34:41 PM -34.6377 127.9058 281° West 40,000  Level Aus ATC (Calculated)
Thu 11:36:00 PM -34.6585 128.0659 99° East  Level FlightAware Approximate
Thu 11:36:10 PM -34.6130 127.7175 281° West 40,000  Level Aus ATC (Calculated)
Thu 11:38:00 PM -34.6422 127.9402 99° East  Level FlightAware Approximate
Thu 11:39:00 PM -34.6390 127.9157 279° West  Level FlightAware Approximate
Thu 11:39:36 PM -34.5626 127.3412 281° West 40,000  Level Aus ATC (Calculated)
Thu 11:40:00 PM -34.6231 127.7942 279° West  Level FlightAware Approximate
Thu 11:41:00 PM -34.5395 127.1720 279° West  Level FlightAware Approximate
Thu 11:42:00 PM -34.5229 127.0511 279° West  Level FlightAware Approximate
Thu 11:43:00 PM -34.5062 126.9304 280° West  Level FlightAware Approximate
Thu 11:44:00 PM -34.4893 126.8096 280° West  Level FlightAware Approximate
Thu 11:44:35 PM -34.4848 126.7776 282° West 40,000  Level Aus ATC (Calculated)
Thu 11:45:00 PM -34.4724 126.6890 280° West  Level FlightAware Approximate
Thu 11:46:00 PM -34.4607 126.6067 280° West  Level FlightAware Approximate
Thu 11:47:00 PM -34.4436 126.4861 280° West  Level FlightAware Approximate
Thu 11:48:00 PM -34.4263 126.3655 280° West  Level FlightAware Approximate
Thu 11:49:00 PM -34.4089 126.2450 280° West  Level FlightAware Approximate
Thu 11:49:35 PM -34.4045 126.2151 282° West 40,000  Level Aus ATC (Calculated)
Thu 11:50:00 PM -34.3913 126.1246 280° West  Level FlightAware Approximate
Thu 11:51:00 PM -34.3796 126.0445 280° West  Level FlightAware Approximate
Thu 11:52:00 PM -34.3619 125.9241 280° West  Level FlightAware Approximate
Thu 11:53:00 PM -34.3441 125.8038 280° West  Level FlightAware Approximate
Thu 11:54:00 PM -34.3261 125.6836 280° West  Level FlightAware Approximate
Thu 11:54:34 PM -34.3216 125.6536 283° West 40,000  Level Aus ATC (Calculated)
Thu 11:54:55 PM -34.3075 125.5601 283° West 40,000 -4 Level Aus ATC (Calculated)
Thu 11:56:00 PM -34.2869 125.4240 280° West  Level FlightAware Approximate
Thu 11:57:00 PM -34.2677 125.2983 280° West  Level FlightAware Approximate
Thu 11:58:00 PM -34.2485 125.1728 281° West  Level FlightAware Approximate
Thu 11:58:39 PM -34.2506 125.1866 283° West 40,000  Level Aus ATC (Calculated)
Thu 11:59:00 PM -34.2290 125.0472 281° West  Level FlightAware Approximate
Thu 11:59:33 PM -34.2362 125.0933 283° West 40,000  Level Aus ATC (Calculated)
Fri 12:00:00 AM -34.2243 125.0171 281° West  Level FlightAware Approximate
Fri 12:00:34 AM -34.2060 124.9001 283° West 40,000  Level Aus ATC (Calculated)
Fri 12:02:00 AM -34.2341 125.0800 101° East  Level FlightAware Approximate
Fri 12:02:54 AM -34.1744 124.7006 284° West 40,000  Level Aus ATC (Calculated)
Fri 12:03:00 AM -34.2164 124.9665 281° West  Level FlightAware Approximate
Fri 12:04:00 AM -34.1524 124.5628 281° West  Level FlightAware Approximate
Fri 12:05:00 AM -34.1323 124.4375 281° West  Level FlightAware Approximate
Fri 12:05:28 AM -34.1265 124.4015 284° West 40,000  Level Aus ATC (Calculated)
Fri 12:06:00 AM -34.1120 124.3124 281° West  Level FlightAware Approximate
Fri 12:07:00 AM -34.0953 124.2096 281° West  Level FlightAware Approximate
Fri 12:08:00 AM -34.0748 124.0845 281° West  Level FlightAware Approximate
Fri 12:09:00 AM -34.0541 123.9595 281° West  Level FlightAware Approximate
Fri 12:10:00 AM -34.0334 123.8346 281° West  Level FlightAware Approximate
Fri 12:10:27 AM -34.0449 123.9037 285° West 40,000  Level Aus ATC (Calculated)
Fri 12:11:49 AM -34.0117 123.7049 285° West 40,000 -6 Level Aus ATC (Calculated)
Fri 12:12:00 AM -34.0126 123.7101 281° West  Level FlightAware Approximate
Fri 12:13:00 AM -33.9868 123.5572 281° West  Level FlightAware Approximate
Fri 12:14:00 AM -33.9657 123.4324 282° West  Level FlightAware Approximate
Fri 12:15:00 AM -33.9444 123.3078 282° West  Level FlightAware Approximate
Fri 12:15:27 AM -33.9613 123.4069 285° West 40,000  Level Aus ATC (Calculated)
Fri 12:17:00 AM -33.9283 123.2137 282° West  Level FlightAware Approximate
Fri 12:18:00 AM -33.9068 123.0891 282° West  Level FlightAware Approximate
Fri 12:19:00 AM -33.8851 122.9646 282° West  Level FlightAware Approximate
Fri 12:20:00 AM -33.8634 122.8402 282° West  Level FlightAware Approximate
Fri 12:20:26 AM -33.8584 122.8120 287° West 40,000  Level Aus ATC (Calculated)
Fri 12:21:00 AM -33.8415 122.7158 282° West  Level FlightAware Approximate
Fri 12:22:00 AM -33.8241 122.6172 282° West  Level FlightAware Approximate
Fri 12:23:00 AM -33.8020 122.4930 282° West  Level FlightAware Approximate
Fri 12:24:00 AM -33.7797 122.3688 282° West  Level FlightAware Approximate
Fri 12:25:00 AM -33.7574 122.2447 282° West  Level FlightAware Approximate
Fri 12:25:26 AM -33.7705 122.3174 288° West 40,000  Level Aus ATC (Calculated)
Fri 12:26:00 AM -33.7349 122.1206 282° West  Level FlightAware Approximate
Fri 12:27:00 AM -33.7354 122.1230 282° West  Level FlightAware Approximate
Fri 12:27:51 AM -33.7168 122.0211 289° West 40,000  Level Aus ATC (Calculated)
Fri 12:28:00 AM -33.7036 122.0019 289° West  Level Estimated
Fri 12:29:00 AM -33.6775 121.8830 289° West  Level FlightAware Approximate
Fri 12:30:00 AM -33.6432 121.7631 289° West  Level FlightAware Approximate
Fri 12:30:28 AM -33.6597 121.7528 290° West 40,000  Level Aus ATC (Calculated)
Fri 12:31:00 AM -33.6088 121.6432 289° West  Level FlightAware Approximate
Fri 12:32:00 AM -33.6054 121.5696 290° West  Level FlightAware Approximate
Fri 12:32:46 AM -33.5966 121.5401 290° West 40,000  Level Aus ATC (Calculated)
Fri 12:34:00 AM -33.5527 121.3929 290° West  Level FlightAware Approximate
Fri 12:35:00 AM -33.5170 121.2738 290° West  Level FlightAware Approximate
Fri 12:35:16 AM -33.5332 121.3277 290° West 40,000  Level Aus ATC (Calculated)
Fri 12:35:48 AM -33.5119 121.2569 290° West 40,000 -22 Level Aus ATC (Calculated)
Fri 12:37:00 AM -33.4689 121.1140 290° West  Level FlightAware Approximate
Fri 12:37:17 AM -33.4694 121.1155 290° West 40,000  Level Aus ATC (Calculated)
Fri 12:37:45 AM -33.4480 121.0449 290° West 40,000 -28 Level Aus ATC (Calculated)
Fri 12:38:20 AM -33.4266 120.9743 290° West 40,000 -30 Level Aus ATC (Calculated)
Fri 12:39:35 AM -33.4052 120.9037 290° West 40,000 -33 Level Aus ATC (Calculated)
Fri 12:40:00 AM -33.3664 120.7763 290° West  Level FlightAware Approximate
Fri 12:41:00 AM -33.3539 120.7355 290° West  Level FlightAware Approximate
Fri 12:41:40 AM -33.3407 120.6923 290° West 40,000  Level Aus ATC (Calculated)
Fri 12:43:00 AM -33.2922 120.5341 290° West  Level FlightAware Approximate
Fri 12:44:00 AM -33.2556 120.4156 290° West  Level FlightAware Approximate
Fri 12:44:24 AM -33.1223 119.9906 290° West 344 396 39,800  Level Aus ATC (RADAR)
Fri 12:44:59 AM -33.0966 119.9299 297° West 345 397 39,800  Level Aus ATC (RADAR)
Fri 12:45:34 AM -33.0749 119.8675 293° West 344 396 39,800  Level Aus ATC (RADAR)
Fri 12:46:18 AM -33.0514 119.7848 289° West 347 399 39,800  Level Aus ATC (RADAR)
Fri 12:46:44 AM -33.0370 119.7391 291° West 348 400 39,800  Level Aus ATC (RADAR)
Fri 12:47:24 AM -33.0144 119.6662 290° West 348 400 39,800  Level Aus ATC (RADAR)
Fri 12:48:08 AM -32.9895 119.5842 290° West 348 400 39,800  Level Aus ATC (RADAR)
Fri 12:48:43 AM -32.9699 119.5208 290° West 345 397 39,800  Level Aus ATC (RADAR)
Fri 12:49:33 AM -32.9423 119.4295 290° West 347 399 39,800  Level Aus ATC (RADAR)
Fri 12:50:03 AM -32.9241 119.3753 292° West 346 398 39,800  Level Aus ATC (RADAR)
Fri 12:50:38 AM -32.9037 119.3110 291° West 351 404 39,800  Level Aus ATC (RADAR)
Fri 12:51:18 AM -32.8786 119.2376 292° West 355 409 39,800  Level Aus ATC (RADAR)
Fri 12:51:58 AM -32.8555 119.1635 290° West 351 404 39,800 154 Level Aus ATC (RADAR)
Fri 12:52:36 AM -32.8600 119.1620 292° West 355 409 40,000 133 Climbing FlightAware ADS-B
Fri 12:52:43 AM -32.8293 119.0821 292° West 346 398 39,900 -188 Descending Aus ATC (RADAR)
Fri 12:53:08 AM -32.8158 119.0363 292° West 345 397 39,900 176 Level Aus ATC (RADAR)
Fri 12:53:17 AM -32.8410 119.1030 292° West 353 406 40,000 146 Climbing FlightAware ADS-B
Fri 12:53:49 AM -32.8190 119.0350 291° West 355 409 40,000  Level FlightAware ADS-B
Fri 12:54:22 AM -32.8020 118.9810 291° West 353 406 40,000  Level FlightAware ADS-B
Fri 12:55:07 AM -32.7740 118.8950 291° West 352 405 40,000  Level FlightAware ADS-B
Fri 12:55:42 AM -32.7510 118.8250 291° West 353 406 40,000  Level FlightAware ADS-B
Fri 12:56:18 AM -32.7280 118.7530 291° West 349 402 40,000 -265 Level FlightAware ADS-B
Fri 12:56:50 AM -32.7140 118.7100 291° West 344 396 39,700 -806 Descending FlightAware ADS-B
Fri 12:57:25 AM -32.6910 118.6410 292° West 339 390 39,100 -1,701 Descending FlightAware ADS-B
Fri 12:57:57 AM -32.6489 118.5217 292° West 327 376 37,800 -1,067 Descending Aus ATC (RADAR)
Fri 12:58:10 AM -32.6660 118.5640 292° West 339 390 38,300 -250 Climbing FlightAware ADS-B
Fri 12:58:45 AM -32.6430 118.4950 292° West 341 392 37,600 -1,029 Descending FlightAware ADS-B
Fri 12:59:20 AM -32.6230 118.4340 291° West 343 395 37,100 -1,522 Descending FlightAware ADS-B
Fri 12:59:52 AM -32.5828 118.3187 291° West 341 392 35,900 -1,029 Descending Aus ATC (RADAR)
Fri 12:59:55 AM -32.6040 118.3760 291° West 348 400 36,500 171 Climbing FlightAware ADS-B
Fri 01:00:27 AM -32.5850 118.3190 292° West 353 406 36,000 -1,645 Descending FlightAware ADS-B
Fri 01:00:57 AM -32.5441 118.2004 292° West 345 397 34,800 -1,050 Descending Aus ATC (RADAR)
Fri 01:01:07 AM -32.5620 118.2500 292° West 357 411 35,300 143 Climbing FlightAware ADS-B
Fri 01:01:39 AM -32.5470 118.2020 290° West 354 407 34,900 -971 Descending FlightAware ADS-B
Fri 01:02:15 AM -32.5190 118.1210 292° West 363 418 34,200 -1,091 Descending FlightAware ADS-B
Fri 01:02:56 AM -32.4940 118.0440 291° West 375 432 33,500 -1,583 Descending FlightAware ADS-B
Fri 01:03:27 AM -32.4496 117.9172 291° West 374 430 32,300 -938 Descending Aus ATC (RADAR)
Fri 01:03:28 AM -32.4750 117.9870 291° West 383 441 33,000 -1,714 Climbing FlightAware ADS-B
Fri 01:04:02 AM -32.4271 117.8503 291° West 366 421 31,300 -973 Descending Aus ATC (RADAR)
Fri 01:04:05 AM -32.4520 117.9200 291° West 384 442 32,400 279 Climbing FlightAware ADS-B
Fri 01:04:45 AM -32.4300 117.8540 292° West 375 432 31,500 -1,217 Descending FlightAware ADS-B
Fri 01:05:14 AM -32.4150 117.8100 292° West 360 414 31,000 -985 Descending FlightAware ADS-B
Fri 01:05:52 AM -32.3950 117.7480 291° West 350 403 30,400 -1,083 Descending FlightAware ADS-B
Fri 01:06:26 AM -32.3720 117.6800 292° West 367 422 29,700 -1,043 Descending FlightAware ADS-B
Fri 01:07:01 AM -32.3560 117.6250 289° West 369 425 29,200 -857 Descending FlightAware ADS-B
Fri 01:07:36 AM -32.3430 117.5660 285° West 368 423 28,700 -923 Descending FlightAware ADS-B
Fri 01:08:06 AM -32.3390 117.5040 274° West 365 420 28,200 -844 Descending FlightAware ADS-B
Fri 01:08:40 AM -32.3390 117.4490 270° West 363 418 27,800 -818 Descending FlightAware ADS-B
Fri 01:09:12 AM -32.3380 117.3900 271° West 362 417 27,300 -930 Descending FlightAware ADS-B
Fri 01:09:51 AM -32.3380 117.3180 270° West 366 421 26,700 -2,057 Descending FlightAware ADS-B
Fri 01:10:22 AM -32.3133 117.1190 270° West 351 404 24,900 -1,200 Descending Aus ATC (RADAR)
Fri 01:10:26 AM -32.3370 117.2330 270° West 364 419 26,000 1,059 Climbing FlightAware ADS-B
Fri 01:10:56 AM -32.3300 117.1730 278° West 360 414 25,500 -885 Descending FlightAware ADS-B
Fri 01:11:27 AM -32.3180 117.1330 290° West 360 414 25,100 -1,770 Descending FlightAware ADS-B
Fri 01:11:57 AM -32.2970 117.0630 290° West 357 411 23,700 -3,000 Descending FlightAware ADS-B
Fri 01:12:13 AM -32.2930 117.0350 280° West 357 411 22,800 -2,632 Descending FlightAware ADS-B
Fri 01:12:54 AM -32.2850 116.9390 276° West 327 376 21,200 -2,023 Descending FlightAware ADS-B
Fri 01:13:39 AM -32.2780 116.8690 277° West 323 372 19,900 -1,650 Descending FlightAware ADS-B
Fri 01:14:14 AM -32.2740 116.8250 276° West 320 368 19,000 -1,727 Descending FlightAware ADS-B
Fri 01:14:45 AM -32.2690 116.7690 276° West 316 364 18,000 -4,030 Descending FlightAware ADS-B
Fri 01:15:21 AM -32.2523 116.5930 276° West 291 335 14,500 -783 Descending Aus ATC (RADAR)
Fri 01:15:31 AM -32.2630 116.7000 276° West 312 359 17,400 -1,855 Climbing FlightAware ADS-B
Fri 01:16:16 AM -32.2436 116.5019 276° West 292 336 12,800 -3,000 Descending Aus ATC (RADAR)
Fri 01:16:19 AM -32.2540 116.6120 276° West 306 352 15,000 1,579 Climbing FlightAware ADS-B
Fri 01:16:54 AM -32.2490 116.5500 275° West 306 352 13,800 -2,182 Descending FlightAware ADS-B
Fri 01:17:25 AM -32.2430 116.4860 276° West 303 349 12,600 -2,083 Descending FlightAware ADS-B
Fri 01:18:06 AM -32.2360 116.4180 277° West 304 350 11,300 -1,747 Descending FlightAware ADS-B
Fri 01:18:44 AM -32.2310 116.3640 276° West 301 346 10,300 -2,172 Descending FlightAware ADS-B
Fri 01:19:04 AM -32.2250 116.3080 277° West 301 346 9,200 -2,512 Descending FlightAware ADS-B
Fri 01:19:27 AM -32.2220 116.2700 275° West 282 325 8,500 -3,053 Descending FlightAware ADS-B
Fri 01:20:01 AM -32.2100 116.1470 277° West 269 310 6,300 -2,421 Descending FlightAware ADS-B
Fri 01:20:24 AM -32.2070 116.1160 277° West 242 278 6,200 -571 Descending FlightAware ADS-B
Fri 01:20:43 AM -32.2040 116.0910 278° West 234 269 5,900 -1,125 Descending FlightAware ADS-B
Fri 01:21:12 AM -32.2010 116.0530 275° West 232 267 5,300 -783 Descending FlightAware ADS-B
Fri 01:21:29 AM -32.1990 116.0320 276° West 213 245 5,300 -529 Level FlightAware ADS-B
Fri 01:21:46 AM -32.1950 116.0130 284° West 209 241 5,000 -1,050 Descending FlightAware ADS-B
Fri 01:22:09 AM -32.1890 115.9880 286° West 213 245 4,600 -1,171 Descending FlightAware ADS-B
Fri 01:22:27 AM -32.1850 115.9670 283° West 212 244 4,200 -714 Descending FlightAware ADS-B
Fri 01:22:51 AM -32.1790 115.9420 286° West 198 228 4,100 -130 Descending FlightAware ADS-B
Fri 01:23:13 AM -32.1740 115.9200 285° West 185 213 4,100  Level FlightAware ADS-B
Fri 01:23:17 AM -32.1730 115.9150 283° West 178 205 4,100  Level FlightAware ADS-B
Fri 01:23:23 AM -32.1700 115.9110 312° West 173 199 4,100 -706 Level FlightAware ADS-B
Fri 01:23:34 AM -32.1620 115.9050 328° Northwest 183 211 3,900 -1,125 Descending FlightAware ADS-B
Fri 01:23:39 AM -32.1580 115.9040 348° North 181 208 3,800 -480 Descending FlightAware ADS-B
Fri 01:23:59 AM -32.1400 115.9070 North 196 226 3,700 -474 Descending FlightAware ADS-B
Fri 01:24:17 AM -32.1260 115.9110 14° North 197 227 3,500 -900 Descending FlightAware ADS-B
Fri 01:24:39 AM -32.1050 115.9170 14° North 198 228 3,100 -1,043 Descending FlightAware ADS-B
Fri 01:25:03 AM -32.0870 115.9220 13° North 196 226 2,700 -1,067 Descending FlightAware ADS-B
Fri 01:25:24 AM -32.0670 115.9280 14° North 185 213 2,300 -933 Descending FlightAware ADS-B
Fri 01:25:48 AM -32.0490 115.9330 13° North 170 196 2,000 -1,000 Descending FlightAware ADS-B
Fri 01:26:06 AM -32.0330 115.9380 15° North 158 182 1,600 -973 Descending FlightAware ADS-B
Fri 01:26:25 AM -32.0220 115.9410 13° North 150 173 1,400 -698 Descending FlightAware ADS-B
Fri 01:26:49 AM -32.0060 115.9460 15° North 149 171 1,100 -783 Descending FlightAware ADS-B
Fri 01:27:11 AM -31.9910 115.9500 13° North 153 176 800 -878 Descending FlightAware ADS-B
Fri 01:27:30 AM -31.9760 115.9550 16° North 152 175 500 -833 Descending FlightAware ADS-B
Fri 01:27:47 AM -31.9650 115.9580 13° North 150 173 300 -706 Descending FlightAware ADS-B
Fri 01:28:04 AM -31.9530 115.9610 12° North 149 171 100 -706 Descending FlightAware ADS-B
Fri 01:28:26 AM -31.9410 115.9650 16° North 92 106 -273 Descending FlightAware ADS-B

Login

Don't have an account? Register now (free) for customized features, flight alerts, and more!